createdAt,value
2017-11-25T00:01:38.837Z,53.20
2017-11-25T00:04:07.610Z,53.30
2017-11-25T00:06:36.392Z,53.30
2017-11-25T00:09:04.483Z,53.30
2017-11-25T00:11:33.258Z,53.30
2017-11-25T00:14:02.037Z,53.30
2017-11-25T00:16:30.126Z,53.30
2017-11-25T00:18:58.879Z,53.30
2017-11-25T00:21:26.902Z,53.30
2017-11-25T00:23:54.896Z,53.30
2017-11-25T00:26:22.895Z,53.30
2017-11-25T00:28:50.954Z,53.30
2017-11-25T00:31:18.953Z,53.30
2017-11-25T00:33:47.772Z,53.40
2017-11-25T00:36:15.813Z,53.30
2017-11-25T00:38:43.839Z,53.40
2017-11-25T00:41:11.830Z,53.40
2017-11-25T00:43:39.835Z,53.40
2017-11-25T00:46:08.589Z,53.40
2017-11-25T00:48:36.607Z,53.40
2017-11-25T00:51:05.368Z,53.50
2017-11-25T00:53:33.369Z,53.40
2017-11-25T00:56:01.363Z,53.50
2017-11-25T00:58:29.365Z,53.40
2017-11-25T01:00:57.480Z,53.50
2017-11-25T01:03:25.470Z,53.50
2017-11-25T01:05:53.462Z,53.50
2017-11-25T01:08:21.444Z,53.50
2017-11-25T01:10:49.443Z,53.50
2017-11-25T01:13:18.242Z,53.50
2017-11-25T01:15:46.998Z,53.50
2017-11-25T01:18:15.023Z,53.40
2017-11-25T01:20:43.017Z,53.60
2017-11-25T01:23:11.036Z,53.50
2017-11-25T01:25:39.812Z,53.60
2017-11-25T01:28:08.658Z,53.60
2017-11-25T01:30:36.609Z,53.50
2017-11-25T01:33:04.643Z,53.50
2017-11-25T01:35:33.436Z,53.60
2017-11-25T01:38:02.225Z,53.60
2017-11-25T01:40:31.011Z,53.60
2017-11-25T01:43:00.050Z,53.60
2017-11-25T01:45:28.083Z,53.60
2017-11-25T01:47:56.944Z,53.60
2017-11-25T01:50:25.016Z,53.60
2017-11-25T01:52:53.075Z,53.60
2017-11-25T01:55:21.214Z,53.70
2017-11-25T01:57:49.288Z,53.70
2017-11-25T02:00:17.365Z,53.70
2017-11-25T02:02:45.430Z,53.70
2017-11-25T02:05:13.465Z,53.70
2017-11-25T02:07:41.519Z,53.70
2017-11-25T02:10:09.608Z,53.80
2017-11-25T02:12:38.407Z,53.80
2017-11-25T02:15:07.318Z,53.90
2017-11-25T02:17:35.357Z,53.80
2017-11-25T02:20:04.251Z,53.90
2017-11-25T02:22:32.341Z,53.90
2017-11-25T02:25:01.230Z,54.00
2017-11-25T02:27:30.114Z,54.00
2017-11-25T02:29:58.987Z,53.90
2017-11-25T02:32:27.074Z,54.00
2017-11-25T02:34:55.954Z,54.10
2017-11-25T02:37:24.046Z,54.10
2017-11-25T02:39:52.930Z,54.10
2017-11-25T02:42:21.868Z,54.00
2017-11-25T02:44:49.970Z,54.10
2017-11-25T02:47:18.064Z,54.10
2017-11-25T02:49:46.950Z,54.10
2017-11-25T02:52:15.031Z,54.80
2017-11-25T02:54:43.898Z,54.20
2017-11-25T02:57:12.005Z,54.20
2017-11-25T02:59:40.102Z,54.20
2017-11-25T03:02:08.092Z,54.20
2017-11-25T03:04:36.114Z,54.20
2017-11-25T03:07:04.987Z,54.20
2017-11-25T03:09:33.839Z,54.20
2017-11-25T03:12:01.854Z,54.20
2017-11-25T03:14:30.690Z,54.30
2017-11-25T03:16:58.783Z,54.30
2017-11-25T03:19:26.791Z,54.30
2017-11-25T03:21:55.596Z,54.30
2017-11-25T03:24:23.690Z,54.30
2017-11-25T03:26:51.711Z,54.30
2017-11-25T03:29:19.765Z,54.30
2017-11-25T03:31:47.791Z,54.40
2017-11-25T03:34:15.812Z,54.30
2017-11-25T03:36:43.834Z,54.40
2017-11-25T03:39:11.859Z,54.40
2017-11-25T03:41:39.875Z,54.40
2017-11-25T03:44:07.918Z,54.40
2017-11-25T03:46:36.960Z,54.40
2017-11-25T03:49:05.037Z,54.40
2017-11-25T03:51:33.054Z,54.40
2017-11-25T03:54:01.880Z,54.50
2017-11-25T03:56:30.074Z,54.50
2017-11-25T03:58:58.177Z,55.10
2017-11-25T04:01:26.216Z,54.50
2017-11-25T04:03:54.277Z,54.50
2017-11-25T04:06:22.311Z,54.50
2017-11-25T04:08:51.072Z,54.60
2017-11-25T04:11:19.097Z,54.50
2017-11-25T04:13:47.177Z,54.60
2017-11-25T04:16:15.173Z,54.60
2017-11-25T04:18:43.209Z,54.70
2017-11-25T04:21:11.214Z,54.70
2017-11-25T04:23:39.297Z,54.70
2017-11-25T04:26:07.335Z,54.70
2017-11-25T04:28:35.387Z,54.70
2017-11-25T04:31:03.427Z,54.70
2017-11-25T04:33:32.203Z,54.70
2017-11-25T04:36:00.222Z,54.70
2017-11-25T04:38:28.252Z,54.70
2017-11-25T04:40:57.020Z,54.80
2017-11-25T04:43:25.023Z,54.70
2017-11-25T04:45:53.819Z,54.80
2017-11-25T04:48:21.818Z,54.80
2017-11-25T04:50:49.895Z,54.80
2017-11-25T04:53:17.979Z,54.80
2017-11-25T04:55:45.991Z,54.80
2017-11-25T04:58:14.794Z,54.80
2017-11-25T05:00:43.012Z,54.80
2017-11-25T05:03:11.104Z,54.80
2017-11-25T05:05:39.202Z,54.80
2017-11-25T05:08:08.070Z,54.90
2017-11-25T05:10:36.105Z,54.90
2017-11-25T05:13:04.181Z,54.90
2017-11-25T05:15:32.199Z,54.90
2017-11-25T05:18:00.955Z,54.90
2017-11-25T05:20:29.009Z,54.90
2017-11-25T05:22:57.031Z,54.90
2017-11-25T05:25:25.831Z,54.90
2017-11-25T05:27:54.155Z,55.00
2017-11-25T05:30:22.181Z,54.90
2017-11-25T05:32:50.225Z,55.00
2017-11-25T05:35:18.243Z,55.00
2017-11-25T05:37:46.261Z,55.00
2017-11-25T05:40:14.303Z,54.90
2017-11-25T05:42:42.388Z,55.00
2017-11-25T05:45:10.450Z,54.90
2017-11-25T05:47:38.483Z,55.00
2017-11-25T05:50:06.608Z,55.00
2017-11-25T05:52:34.627Z,55.10
2017-11-25T05:55:02.635Z,55.00
2017-11-25T05:57:30.662Z,55.10
2017-11-25T05:59:58.661Z,55.10
2017-11-25T06:02:26.683Z,55.10
2017-11-25T06:04:55.465Z,55.10
2017-11-25T06:07:23.494Z,55.10
2017-11-25T06:09:51.523Z,55.10
2017-11-25T06:12:20.302Z,55.10
2017-11-25T06:14:49.066Z,55.10
2017-11-25T06:17:17.071Z,55.20
2017-11-25T06:19:45.865Z,55.20
2017-11-25T06:22:14.655Z,55.20
2017-11-25T06:24:43.431Z,55.20
2017-11-25T06:27:12.212Z,55.20
2017-11-25T06:29:41.539Z,55.20
2017-11-25T06:32:09.622Z,55.20
2017-11-25T06:34:37.861Z,55.20
2017-11-25T06:37:05.963Z,55.20
2017-11-25T06:39:39.077Z,55.30
2017-11-25T06:42:07.155Z,55.20
2017-11-25T06:44:35.246Z,55.30
2017-11-25T06:47:09.998Z,55.30
2017-11-25T06:49:38.780Z,55.30
2017-11-25T06:52:06.795Z,55.30
2017-11-25T06:54:34.829Z,55.30
2017-11-25T06:57:03.626Z,55.40
2017-11-25T06:59:32.412Z,55.40
2017-11-25T07:02:01.199Z,55.50
2017-11-25T07:04:29.967Z,55.50
2017-11-25T07:06:58.015Z,55.50
2017-11-25T07:09:26.097Z,56.10
2017-11-25T07:11:54.138Z,55.50
2017-11-25T07:14:22.198Z,55.40
2017-11-25T07:16:50.273Z,55.60
2017-11-25T07:19:18.350Z,55.60
2017-11-25T07:21:46.467Z,55.60
2017-11-25T07:24:14.587Z,55.60
2017-11-25T07:26:42.643Z,55.60
2017-11-25T07:29:11.441Z,55.70
2017-11-25T07:31:39.437Z,55.70
2017-11-25T07:34:07.449Z,55.70
2017-11-25T07:36:35.337Z,55.70
2017-11-25T07:39:04.215Z,55.70
2017-11-25T07:41:32.243Z,55.70
2017-11-25T07:44:00.292Z,55.80
2017-11-25T07:46:28.361Z,55.80
2017-11-25T07:48:56.418Z,55.80
2017-11-25T07:51:25.199Z,55.50
2017-11-25T07:53:53.972Z,55.60
2017-11-25T07:56:22.011Z,55.50
2017-11-25T07:58:50.055Z,55.60
2017-11-25T08:01:18.106Z,55.70
2017-11-25T08:03:46.895Z,56.10
2017-11-25T08:06:15.766Z,56.30
2017-11-25T08:08:43.830Z,56.20
2017-11-25T08:11:11.926Z,56.40
2017-11-25T08:13:40.774Z,56.70
2017-11-25T08:16:09.229Z,56.70
2017-11-25T08:18:37.257Z,56.80
2017-11-25T08:21:06.244Z,57.10
2017-11-25T08:23:34.293Z,57.00
2017-11-25T08:26:02.334Z,57.20
2017-11-25T08:28:30.379Z,57.30
2017-11-25T08:30:59.171Z,57.60
2017-11-25T08:33:27.259Z,57.60
2017-11-25T08:35:55.335Z,57.70
2017-11-25T08:38:23.416Z,57.70
2017-11-25T08:40:51.454Z,57.70
2017-11-25T08:43:20.257Z,58.10
2017-11-25T08:45:48.273Z,58.00
2017-11-25T08:48:16.305Z,58.10
2017-11-25T08:50:44.364Z,58.10
2017-11-25T08:53:12.388Z,58.10
2017-11-25T08:55:40.422Z,58.30
2017-11-25T08:58:08.463Z,58.30
2017-11-25T09:00:37.285Z,58.40
2017-11-25T09:03:05.312Z,58.40
2017-11-25T09:05:34.107Z,58.50
2017-11-25T09:08:02.852Z,58.60
2017-11-25T09:10:30.962Z,58.70
2017-11-25T09:12:59.779Z,58.80
2017-11-25T09:15:28.122Z,58.90
2017-11-25T09:17:56.188Z,58.90
2017-11-25T09:20:24.467Z,59.00
2017-11-25T09:22:52.572Z,59.10
2017-11-25T09:25:20.564Z,59.10
2017-11-25T09:27:48.630Z,59.10
2017-11-25T09:30:16.660Z,59.20
2017-11-25T09:32:44.696Z,59.20
2017-11-25T09:35:12.803Z,59.30
2017-11-25T09:37:41.576Z,59.60
2017-11-25T09:40:09.730Z,59.50
2017-11-25T09:42:37.855Z,59.50
2017-11-25T09:45:06.740Z,59.50
2017-11-25T09:47:34.883Z,59.50
2017-11-25T09:50:02.976Z,59.50
2017-11-25T09:52:31.853Z,59.60
2017-11-25T09:54:59.934Z,59.60
2017-11-25T09:57:28.034Z,59.70
2017-11-25T09:59:56.043Z,59.80
2017-11-25T10:02:24.125Z,59.70
2017-11-25T10:04:52.176Z,59.70
2017-11-25T10:07:21.258Z,59.80
2017-11-25T10:09:49.352Z,59.90
2017-11-25T10:12:17.379Z,59.90
2017-11-25T10:14:46.172Z,59.80
2017-11-25T10:17:14.975Z,59.80
2017-11-25T10:19:42.992Z,59.80
2017-11-25T10:22:11.010Z,59.80
2017-11-25T10:24:39.020Z,59.90
2017-11-25T10:27:07.024Z,59.90
2017-11-25T10:29:35.793Z,59.80
2017-11-25T10:32:03.820Z,59.80
2017-11-25T10:34:31.842Z,59.90
2017-11-25T10:36:59.940Z,60.00
2017-11-25T10:39:28.615Z,60.00
2017-11-25T10:41:56.731Z,60.00
2017-11-25T10:44:24.756Z,59.90
2017-11-25T10:46:53.613Z,60.10
2017-11-25T10:49:21.625Z,60.10
2017-11-25T10:51:50.863Z,60.20
2017-11-25T10:54:18.884Z,60.20
2017-11-25T10:56:46.919Z,60.30
2017-11-25T10:59:14.919Z,60.20
2017-11-25T11:01:42.937Z,60.40
2017-11-25T11:04:11.002Z,60.30
2017-11-25T11:06:39.003Z,60.30
2017-11-25T11:09:07.046Z,60.30
2017-11-25T11:11:35.086Z,60.30
2017-11-25T11:14:03.950Z,60.40
2017-11-25T11:16:31.962Z,60.40
2017-11-25T11:18:59.974Z,61.20
2017-11-25T11:21:28.010Z,60.50
2017-11-25T11:23:56.014Z,60.50
2017-11-25T11:26:24.024Z,60.60
2017-11-25T11:28:52.023Z,60.60
2017-11-25T11:31:20.084Z,60.70
2017-11-25T11:33:48.119Z,60.70
2017-11-25T11:36:16.504Z,60.80
2017-11-25T11:38:44.580Z,60.80
2017-11-25T11:41:12.676Z,60.80
2017-11-25T11:43:41.478Z,60.80
2017-11-25T11:46:09.576Z,60.80
2017-11-25T11:48:37.640Z,60.90
2017-11-25T11:51:05.745Z,61.00
2017-11-25T11:53:33.765Z,60.90
2017-11-25T11:56:01.792Z,60.80
2017-11-25T11:58:29.819Z,60.80
2017-11-25T12:00:57.953Z,60.80
2017-11-25T12:03:27.131Z,60.80
2017-11-25T12:05:55.227Z,60.80
2017-11-25T12:08:24.070Z,60.90
2017-11-25T12:10:52.111Z,60.70
2017-11-25T12:13:20.165Z,60.80
2017-11-25T12:15:48.992Z,60.80
2017-11-25T12:18:17.047Z,60.80
2017-11-25T12:20:45.100Z,60.80
2017-11-25T12:23:13.936Z,60.80
2017-11-25T12:25:41.919Z,60.80
2017-11-25T12:28:09.930Z,60.80
2017-11-25T12:30:38.708Z,60.70
2017-11-25T12:33:07.479Z,60.70
2017-11-25T12:35:35.490Z,60.70
2017-11-25T12:38:03.490Z,61.30
2017-11-25T12:40:31.507Z,60.50
2017-11-25T12:43:00.274Z,60.40
2017-11-25T12:45:28.287Z,60.40
2017-11-25T12:47:56.308Z,60.20
2017-11-25T12:50:24.591Z,60.10
2017-11-25T12:52:52.628Z,60.00
2017-11-25T12:55:20.655Z,60.00
2017-11-25T12:57:49.436Z,59.70
2017-11-25T13:00:17.436Z,59.70
2017-11-25T13:02:45.616Z,59.60
2017-11-25T13:05:13.619Z,59.50
2017-11-25T13:07:41.651Z,59.30
2017-11-25T13:10:09.693Z,59.20
2017-11-25T13:12:37.707Z,59.10
2017-11-25T13:15:09.940Z,59.10
2017-11-25T13:17:38.938Z,59.00
2017-11-25T13:20:08.328Z,58.80
2017-11-25T13:22:41.280Z,58.80
2017-11-25T13:25:10.470Z,58.70
2017-11-25T13:27:41.886Z,58.50
2017-11-25T13:30:11.375Z,58.50
2017-11-25T13:32:39.445Z,58.50
2017-11-25T13:35:07.460Z,58.50
2017-11-25T13:37:35.468Z,58.40
2017-11-25T13:40:03.499Z,58.40
2017-11-25T13:42:32.054Z,58.40
2017-11-25T13:45:00.872Z,58.40
2017-11-25T13:47:28.958Z,58.50
2017-11-25T13:49:56.995Z,58.60
2017-11-25T13:52:25.058Z,58.60
2017-11-25T13:54:53.957Z,58.70
2017-11-25T13:57:21.998Z,58.70
2017-11-25T13:59:50.031Z,58.60
2017-11-25T14:02:18.050Z,58.60
2017-11-25T14:04:46.917Z,58.60
2017-11-25T14:07:15.814Z,58.50
2017-11-25T14:09:43.921Z,58.50
2017-11-25T14:12:12.766Z,58.50
2017-11-25T14:14:40.821Z,58.50
2017-11-25T14:17:08.841Z,58.50
2017-11-25T14:19:37.655Z,58.50
2017-11-25T14:22:05.705Z,58.50
2017-11-25T14:24:34.534Z,58.60
2017-11-25T14:27:02.574Z,58.50
2017-11-25T14:29:31.383Z,58.60
2017-11-25T14:31:59.423Z,58.50
2017-11-25T14:34:28.259Z,58.50
2017-11-25T14:36:56.262Z,58.50
2017-11-25T14:39:24.324Z,58.50
2017-11-25T14:41:52.355Z,58.50
2017-11-25T14:44:20.453Z,58.50
2017-11-25T14:46:48.534Z,58.60
2017-11-25T14:49:16.960Z,58.60
2017-11-25T14:51:45.837Z,58.60
2017-11-25T14:54:15.082Z,58.60
2017-11-25T14:56:43.158Z,58.60
2017-11-25T14:59:11.217Z,58.60
2017-11-25T15:01:39.336Z,58.70
2017-11-25T15:04:07.332Z,58.70
2017-11-25T15:06:36.108Z,58.70
2017-11-25T15:09:04.910Z,58.70
2017-11-25T15:11:33.739Z,58.60
2017-11-25T15:14:01.802Z,58.70
2017-11-25T15:16:29.839Z,58.60
2017-11-25T15:18:58.671Z,58.60
2017-11-25T15:21:26.773Z,58.60
2017-11-25T15:23:54.866Z,58.70
2017-11-25T15:26:23.671Z,58.90
2017-11-25T15:28:51.785Z,58.90
2017-11-25T15:31:19.849Z,58.90
2017-11-25T15:33:47.887Z,58.90
2017-11-25T15:36:16.024Z,59.00
2017-11-25T15:38:44.087Z,59.00
2017-11-25T15:41:12.150Z,59.10
2017-11-25T15:43:40.192Z,59.10
2017-11-25T15:46:08.223Z,59.10
2017-11-25T15:48:36.265Z,59.10
2017-11-25T15:51:04.384Z,59.10
2017-11-25T15:53:38.343Z,59.20
2017-11-25T15:56:06.536Z,59.30
2017-11-25T15:58:34.568Z,59.30
2017-11-25T16:01:02.643Z,59.30
2017-11-25T16:03:30.683Z,59.40
2017-11-25T16:05:59.540Z,59.50
2017-11-25T16:08:27.569Z,59.50
2017-11-25T16:10:55.685Z,59.50
2017-11-25T16:13:23.724Z,59.60
2017-11-25T16:15:51.779Z,59.60
2017-11-25T16:18:20.636Z,59.70
2017-11-25T16:20:49.879Z,59.80
2017-11-25T16:23:17.883Z,59.80
2017-11-25T16:25:45.953Z,59.80
2017-11-25T16:28:14.061Z,59.80
2017-11-25T16:30:42.898Z,59.90
2017-11-25T16:33:10.967Z,59.80
2017-11-25T16:35:39.046Z,59.80
2017-11-25T16:38:07.212Z,59.90
2017-11-25T16:40:35.235Z,60.00
2017-11-25T16:43:04.113Z,60.10
2017-11-25T16:45:32.127Z,60.10
2017-11-25T16:48:12.022Z,60.10
2017-11-25T16:50:40.055Z,60.10
2017-11-25T16:53:08.027Z,60.10
2017-11-25T16:55:36.100Z,60.20
2017-11-25T16:58:04.109Z,60.30
2017-11-25T17:00:32.393Z,60.30
2017-11-25T17:03:00.400Z,60.30
2017-11-25T17:05:28.418Z,60.40
2017-11-25T17:07:56.428Z,60.40
2017-11-25T17:10:25.377Z,60.50
2017-11-25T17:12:53.399Z,60.40
2017-11-25T17:15:21.994Z,60.50
2017-11-25T17:17:49.995Z,60.50
2017-11-25T17:20:18.043Z,60.60
2017-11-25T17:22:46.036Z,60.60
2017-11-25T17:25:14.091Z,60.70
2017-11-25T17:27:42.129Z,60.70
2017-11-25T17:30:10.175Z,60.80
2017-11-25T17:32:39.057Z,60.80
2017-11-25T17:35:07.116Z,60.80
2017-11-25T17:37:35.155Z,60.80
2017-11-25T17:40:03.632Z,60.70
2017-11-25T17:42:31.699Z,60.60
2017-11-25T17:45:00.848Z,60.50
2017-11-25T17:47:29.705Z,60.50
2017-11-25T17:49:58.454Z,60.50
2017-11-25T17:52:27.945Z,61.20
2017-11-25T17:55:00.603Z,60.50
2017-11-25T17:57:29.068Z,60.50
2017-11-25T17:59:58.920Z,60.50
2017-11-25T18:02:28.599Z,60.50
2017-11-25T18:04:58.500Z,60.50
2017-11-25T18:07:28.702Z,60.50
2017-11-25T18:09:58.910Z,60.50
2017-11-25T18:12:28.831Z,60.50
2017-11-25T18:14:59.480Z,60.50
2017-11-25T18:17:31.354Z,60.50
2017-11-25T18:20:01.004Z,60.50
2017-11-25T18:22:32.721Z,60.70
2017-11-25T18:25:02.933Z,60.60
2017-11-25T18:27:31.642Z,60.70
2017-11-25T18:30:02.173Z,60.80
2017-11-25T18:32:31.447Z,60.80
2017-11-25T18:35:02.347Z,60.80
2017-11-25T18:37:33.259Z,61.10
2017-11-25T18:40:04.056Z,61.00
2017-11-25T18:42:34.517Z,61.00
2017-11-25T18:45:03.610Z,61.20
2017-11-25T18:47:32.767Z,61.10
2017-11-25T18:50:04.136Z,61.10
2017-11-25T18:52:33.198Z,61.10
2017-11-25T18:55:03.343Z,61.20
2017-11-25T18:57:32.233Z,62.00
2017-11-25T19:00:00.737Z,61.20
2017-11-25T19:02:30.069Z,61.20
2017-11-25T19:05:01.252Z,61.20
2017-11-25T19:07:30.434Z,61.20
2017-11-25T19:10:02.515Z,61.20
2017-11-25T19:12:32.934Z,61.20
2017-11-25T19:15:05.329Z,61.30
2017-11-25T19:17:35.509Z,61.30
2017-11-25T19:20:06.313Z,61.30
2017-11-25T19:22:37.399Z,61.20
2017-11-25T19:25:08.607Z,61.30
2017-11-25T19:27:39.828Z,61.20
2017-11-25T19:30:11.926Z,61.20
2017-11-25T19:32:42.433Z,61.20
2017-11-25T19:35:11.269Z,61.30
2017-11-25T19:37:40.734Z,61.40
2017-11-25T19:40:09.762Z,61.40
2017-11-25T19:42:38.995Z,61.40
2017-11-25T19:45:07.339Z,61.50
2017-11-25T19:47:37.128Z,62.20
2017-11-25T19:50:06.291Z,61.40
2017-11-25T19:52:36.048Z,61.40
2017-11-25T19:55:06.092Z,61.50
2017-11-25T19:57:36.432Z,61.40
2017-11-25T20:00:05.118Z,61.50
2017-11-25T20:02:33.836Z,61.50
2017-11-25T20:05:02.727Z,61.50
2017-11-25T20:07:32.683Z,61.60
2017-11-25T20:10:02.669Z,61.60
2017-11-25T20:12:31.573Z,61.60
2017-11-25T20:15:01.258Z,61.60
2017-11-25T20:17:29.708Z,61.60
2017-11-25T20:20:00.226Z,61.70
2017-11-25T20:22:30.938Z,61.60
2017-11-25T20:25:02.944Z,61.70
2017-11-25T20:27:32.710Z,61.70
2017-11-25T20:30:02.658Z,61.60
2017-11-25T20:32:31.949Z,61.60
2017-11-25T20:35:01.730Z,61.60
2017-11-25T20:37:32.847Z,61.70
2017-11-25T20:40:02.537Z,61.80
2017-11-25T20:42:33.325Z,61.80
2017-11-25T20:45:01.767Z,61.80
2017-11-25T20:47:31.992Z,61.70
2017-11-25T20:50:01.032Z,61.80
2017-11-25T20:52:32.044Z,61.80
2017-11-25T20:55:01.090Z,61.80
2017-11-25T20:57:29.931Z,61.80
2017-11-25T20:59:59.170Z,61.80
2017-11-25T21:02:29.027Z,61.70
2017-11-25T21:04:58.476Z,61.80
2017-11-25T21:07:29.321Z,61.70
2017-11-25T21:09:58.632Z,61.70
2017-11-25T21:12:27.694Z,61.70
2017-11-25T21:14:59.472Z,61.80
2017-11-25T21:17:30.044Z,61.80
2017-11-25T21:19:58.692Z,61.90
2017-11-25T21:22:28.412Z,61.90
2017-11-25T21:24:56.836Z,61.90
2017-11-25T21:27:25.723Z,61.90
2017-11-25T21:29:55.386Z,62.00
2017-11-25T21:32:25.029Z,62.00
2017-11-25T21:34:55.865Z,62.00
2017-11-25T21:37:24.742Z,62.00
2017-11-25T21:39:54.137Z,62.00
2017-11-25T21:42:22.926Z,61.90
2017-11-25T21:44:51.704Z,62.00
2017-11-25T21:47:20.240Z,62.00
2017-11-25T21:49:51.031Z,62.00
2017-11-25T21:52:20.648Z,62.00
2017-11-25T21:54:49.101Z,62.00
2017-11-25T21:57:19.284Z,62.00
2017-11-25T21:59:48.386Z,62.00
2017-11-25T22:02:17.192Z,62.10
2017-11-25T22:04:47.060Z,62.00
2017-11-25T22:07:16.254Z,62.00
2017-11-25T22:09:45.439Z,62.00
2017-11-25T22:12:14.117Z,62.00
2017-11-25T22:14:44.403Z,62.00
2017-11-25T22:17:14.150Z,61.90
2017-11-25T22:19:43.210Z,61.80
2017-11-25T22:22:11.784Z,61.80
2017-11-25T22:24:41.772Z,61.80
2017-11-25T22:27:12.093Z,61.80
2017-11-25T22:29:40.820Z,61.80
2017-11-25T22:32:10.482Z,61.80
2017-11-25T22:34:39.877Z,61.70
2017-11-25T22:37:13.817Z,61.70
2017-11-25T22:39:43.210Z,61.70
2017-11-25T22:42:12.760Z,61.70
2017-11-25T22:44:42.069Z,61.70
2017-11-25T22:47:12.079Z,61.70
2017-11-25T22:49:41.366Z,61.70
2017-11-25T22:52:10.256Z,61.70
2017-11-25T22:54:39.726Z,61.60
2017-11-25T22:57:08.756Z,61.70
2017-11-25T22:59:38.484Z,61.60
2017-11-25T23:02:09.922Z,61.60
2017-11-25T23:04:38.911Z,61.60
2017-11-25T23:07:09.408Z,61.70
2017-11-25T23:09:39.688Z,61.70
2017-11-25T23:12:09.654Z,61.60
2017-11-25T23:14:38.088Z,61.60
2017-11-25T23:17:07.406Z,61.70
2017-11-25T23:19:36.057Z,61.70
2017-11-25T23:22:06.090Z,61.70
2017-11-25T23:24:35.413Z,61.60
2017-11-25T23:27:06.017Z,61.60
2017-11-25T23:29:35.723Z,61.80
2017-11-25T23:32:05.290Z,61.70
2017-11-25T23:34:36.597Z,61.70
2017-11-25T23:37:05.446Z,61.70
2017-11-25T23:39:36.108Z,61.70
2017-11-25T23:42:08.954Z,61.60
2017-11-25T23:44:38.500Z,61.70
2017-11-25T23:47:11.707Z,61.50
2017-11-25T23:49:40.310Z,61.50
2017-11-25T23:52:09.172Z,61.50
2017-11-25T23:54:39.696Z,61.60
2017-11-25T23:57:09.024Z,61.60
2017-11-25T23:59:37.891Z,61.60
